createdAt,value
2023-06-22T00:00:28.333Z,22.59
2023-06-22T00:02:56.609Z,22.64
2023-06-22T00:05:24.301Z,22.65
2023-06-22T00:07:51.816Z,22.52
2023-06-22T00:10:19.646Z,22.39
2023-06-22T00:12:47.211Z,22.30
2023-06-22T00:15:14.801Z,22.06
2023-06-22T00:17:42.769Z,22.14
2023-06-22T00:20:11.411Z,22.21
2023-06-22T00:22:40.229Z,22.25
2023-06-22T00:25:08.747Z,22.15
2023-06-22T00:27:37.178Z,22.16
2023-06-22T00:30:08.185Z,22.20
2023-06-22T00:32:36.150Z,22.26
2023-06-22T00:35:04.076Z,22.26
2023-06-22T00:37:31.623Z,22.30
2023-06-22T00:40:00.327Z,22.27
2023-06-22T00:42:27.872Z,22.29
2023-06-22T00:44:55.620Z,22.35
2023-06-22T00:47:25.540Z,22.35
2023-06-22T00:49:53.615Z,22.35
2023-06-22T00:52:28.288Z,22.35
2023-06-22T00:54:58.728Z,22.27
2023-06-22T00:57:29.220Z,22.27
2023-06-22T00:59:57.449Z,22.18
2023-06-22T01:02:25.288Z,22.24
2023-06-22T01:04:53.012Z,22.25
2023-06-22T01:07:21.557Z,22.25
2023-06-22T01:09:59.126Z,22.31
2023-06-22T01:12:31.896Z,22.39
2023-06-22T01:15:11.657Z,22.51
2023-06-22T01:17:44.234Z,22.58
2023-06-22T01:20:14.423Z,22.64
2023-06-22T01:23:10.304Z,22.70
2023-06-22T01:25:48.976Z,22.77
2023-06-22T01:28:38.661Z,22.79
2023-06-22T01:31:07.865Z,22.75
2023-06-22T01:33:40.365Z,22.75
2023-06-22T01:36:08.442Z,22.69
2023-06-22T01:38:38.345Z,22.62
2023-06-22T01:41:07.120Z,22.55
2023-06-22T01:43:36.868Z,22.45
2023-06-22T01:46:05.389Z,22.31
2023-06-22T01:48:33.701Z,22.18
2023-06-22T01:51:04.187Z,22.19
2023-06-22T01:53:32.313Z,22.19
2023-06-22T01:55:59.960Z,22.17
2023-06-22T01:58:32.333Z,22.16
2023-06-22T02:01:11.893Z,22.16
2023-06-22T02:03:47.760Z,22.19
2023-06-22T02:06:22.003Z,22.17
2023-06-22T02:08:53.107Z,22.16
2023-06-22T02:11:22.943Z,22.18
2023-06-22T02:13:52.025Z,22.23
2023-06-22T02:16:20.456Z,22.27
2023-06-22T02:18:52.001Z,22.28
2023-06-22T02:21:20.280Z,22.25
2023-06-22T02:23:48.413Z,22.25
2023-06-22T02:26:18.112Z,22.18
2023-06-22T02:28:47.164Z,22.14
2023-06-22T02:31:19.345Z,22.11
2023-06-22T02:33:47.312Z,22.08
2023-06-22T02:36:15.314Z,22.06
2023-06-22T02:38:49.189Z,22.00
2023-06-22T02:41:20.228Z,21.99
2023-06-22T02:43:49.544Z,21.92
2023-06-22T02:46:20.980Z,21.80
2023-06-22T02:48:49.008Z,21.79
2023-06-22T02:51:16.998Z,21.71
2023-06-22T02:53:48.335Z,21.66
2023-06-22T02:56:17.005Z,21.64
2023-06-22T02:58:45.098Z,21.68
2023-06-22T03:01:15.072Z,21.69
2023-06-22T03:03:43.504Z,21.67
2023-06-22T03:06:15.378Z,21.70
2023-06-22T03:08:43.162Z,21.70
2023-06-22T03:11:11.281Z,21.71
2023-06-22T03:13:38.875Z,21.70
2023-06-22T03:16:07.249Z,21.66
2023-06-22T03:18:35.114Z,21.58
2023-06-22T03:21:03.548Z,21.55
2023-06-22T03:23:32.530Z,21.61
2023-06-22T03:26:00.490Z,21.56
2023-06-22T03:28:28.077Z,21.61
2023-06-22T03:30:55.800Z,21.65
2023-06-22T03:33:24.059Z,21.63
2023-06-22T03:35:51.596Z,21.64
2023-06-22T03:38:19.246Z,21.63
2023-06-22T03:40:47.535Z,21.65
2023-06-22T03:43:15.125Z,21.65
2023-06-22T03:45:42.830Z,21.64
2023-06-22T03:48:10.733Z,21.64
2023-06-22T03:50:38.432Z,21.68
2023-06-22T03:53:06.120Z,21.73
2023-06-22T03:55:35.533Z,21.78
2023-06-22T03:58:06.816Z,21.83
2023-06-22T04:00:34.763Z,21.88
2023-06-22T04:03:02.686Z,21.95
2023-06-22T04:05:30.326Z,21.98
2023-06-22T04:07:57.864Z,22.01
2023-06-22T04:10:25.739Z,22.03
2023-06-22T04:12:53.377Z,22.04
2023-06-22T04:15:20.913Z,21.95
2023-06-22T04:17:48.989Z,21.87
2023-06-22T04:20:16.570Z,21.85
2023-06-22T04:22:44.286Z,21.91
2023-06-22T04:25:12.189Z,21.89
2023-06-22T04:27:41.455Z,21.96
2023-06-22T04:30:09.438Z,21.99
2023-06-22T04:32:37.443Z,22.03
2023-06-22T04:35:08.414Z,22.01
2023-06-22T04:37:35.989Z,22.07
2023-06-22T04:40:05.996Z,22.14
2023-06-22T04:42:35.963Z,22.21
2023-06-22T04:45:04.778Z,22.29
2023-06-22T04:47:32.379Z,22.37
2023-06-22T04:49:59.976Z,22.43
2023-06-22T04:52:27.937Z,22.50
2023-06-22T04:54:58.836Z,22.58
2023-06-22T04:57:33.396Z,22.65
2023-06-22T05:00:13.270Z,22.70
2023-06-22T05:02:42.155Z,22.78
2023-06-22T05:05:14.624Z,22.83
2023-06-22T05:07:53.858Z,22.89
2023-06-22T05:10:21.790Z,22.96
2023-06-22T05:12:49.376Z,23.03
2023-06-22T05:15:17.059Z,23.10
2023-06-22T05:17:46.442Z,23.17
2023-06-22T05:20:14.214Z,23.22
2023-06-22T05:22:42.148Z,23.28
2023-06-22T05:25:11.698Z,23.34
2023-06-22T05:27:40.680Z,23.42
2023-06-22T05:30:09.107Z,23.51
2023-06-22T05:32:37.865Z,23.56
2023-06-22T05:35:06.211Z,23.60
2023-06-22T05:37:33.930Z,23.65
2023-06-22T05:40:01.915Z,23.71
2023-06-22T05:42:29.590Z,23.79
2023-06-22T05:44:57.082Z,23.84
2023-06-22T05:47:25.087Z,23.89
2023-06-22T05:49:52.606Z,23.93
2023-06-22T05:52:20.105Z,23.95
2023-06-22T05:54:47.909Z,24.03
2023-06-22T05:57:15.412Z,24.13
2023-06-22T05:59:42.871Z,24.21
2023-06-22T06:02:10.828Z,24.23
2023-06-22T06:04:38.645Z,24.29
2023-06-22T06:07:06.270Z,24.40
2023-06-22T06:09:33.816Z,24.46
2023-06-22T06:12:04.093Z,24.58
2023-06-22T06:14:31.624Z,24.69
2023-06-22T06:16:59.163Z,24.84
2023-06-22T06:19:27.035Z,25.01
2023-06-22T06:21:54.657Z,25.16
2023-06-22T06:24:22.277Z,25.36
2023-06-22T06:26:50.154Z,25.51
2023-06-22T06:29:17.729Z,25.73
2023-06-22T06:31:45.376Z,25.86
2023-06-22T06:34:13.363Z,26.03
2023-06-22T06:36:40.902Z,26.24
2023-06-22T06:39:08.489Z,26.46
2023-06-22T06:41:36.372Z,26.69
2023-06-22T06:44:04.074Z,26.89
2023-06-22T06:46:31.698Z,27.02
2023-06-22T06:48:59.724Z,27.22
2023-06-22T06:51:27.342Z,27.39
2023-06-22T06:53:54.865Z,27.59
2023-06-22T06:56:22.963Z,27.58
2023-06-22T06:58:51.671Z,27.81
2023-06-22T07:01:22.567Z,27.95
2023-06-22T07:03:50.858Z,28.18
2023-06-22T07:06:18.604Z,28.36
2023-06-22T07:08:46.523Z,28.36
2023-06-22T07:11:14.410Z,28.34
2023-06-22T07:13:42.011Z,28.49
2023-06-22T07:16:09.520Z,28.70
2023-06-22T07:18:37.346Z,28.90
2023-06-22T07:21:07.602Z,29.05
2023-06-22T07:23:35.194Z,29.00
2023-06-22T07:26:03.084Z,29.12
2023-06-22T07:28:38.235Z,29.19
2023-06-22T07:31:06.133Z,29.21
2023-06-22T07:33:33.666Z,29.18
2023-06-22T07:36:01.279Z,29.09
2023-06-22T07:38:29.258Z,29.28
2023-06-22T07:40:56.990Z,29.44
2023-06-22T07:43:24.557Z,29.59
2023-06-22T07:45:56.410Z,29.59
2023-06-22T07:48:24.370Z,29.55
2023-06-22T07:50:52.272Z,29.48
2023-06-22T07:53:19.872Z,29.71
2023-06-22T07:55:49.810Z,29.99
2023-06-22T07:58:20.155Z,30.11
2023-06-22T08:00:48.386Z,30.26
2023-06-22T08:03:16.650Z,30.42
2023-06-22T08:05:44.230Z,30.56
2023-06-22T08:08:11.732Z,30.66
2023-06-22T08:10:39.588Z,30.64
2023-06-22T08:13:07.198Z,30.65
2023-06-22T08:15:34.972Z,30.59
2023-06-22T08:18:03.062Z,30.62
2023-06-22T08:20:30.817Z,30.70
2023-06-22T08:23:01.433Z,30.78
2023-06-22T08:25:29.610Z,30.91
2023-06-22T08:27:57.506Z,31.02
2023-06-22T08:30:25.115Z,30.89
2023-06-22T08:32:53.106Z,31.09
2023-06-22T08:35:20.755Z,31.01
2023-06-22T08:37:53.011Z,31.11
2023-06-22T08:40:22.065Z,31.33
2023-06-22T08:42:50.443Z,31.47
2023-06-22T08:45:18.081Z,31.36
2023-06-22T08:47:46.006Z,31.51
2023-06-22T08:50:14.252Z,31.39
2023-06-22T08:52:42.692Z,31.48
2023-06-22T08:55:11.316Z,31.61
2023-06-22T08:57:40.293Z,31.34
2023-06-22T09:00:19.209Z,31.49
2023-06-22T09:02:48.837Z,31.48
2023-06-22T09:05:17.336Z,31.32
2023-06-22T09:07:45.119Z,31.40
2023-06-22T09:10:13.220Z,31.66
2023-06-22T09:12:41.110Z,31.81
2023-06-22T09:15:15.669Z,31.80
2023-06-22T09:17:47.825Z,31.90
2023-06-22T09:20:16.830Z,31.99
2023-06-22T09:22:44.841Z,32.07
2023-06-22T09:25:12.570Z,32.05
2023-06-22T09:27:40.186Z,32.13
2023-06-22T09:30:08.826Z,32.33
2023-06-22T09:32:36.545Z,32.52
2023-06-22T09:35:13.427Z,32.51
2023-06-22T09:37:42.012Z,32.55
2023-06-22T09:40:11.742Z,32.85
2023-06-22T09:42:40.305Z,32.95
2023-06-22T09:45:08.733Z,32.71
2023-06-22T09:47:36.365Z,32.86
2023-06-22T09:50:04.138Z,33.11
2023-06-22T09:52:43.425Z,33.21
2023-06-22T09:55:17.266Z,33.37
2023-06-22T09:57:45.423Z,33.53
2023-06-22T10:00:16.835Z,33.64
2023-06-22T10:02:45.720Z,33.69
2023-06-22T10:05:13.830Z,33.69
2023-06-22T10:07:44.729Z,33.37
2023-06-22T10:10:13.763Z,33.51
2023-06-22T10:12:55.564Z,33.77
2023-06-22T10:15:23.479Z,33.85
2023-06-22T10:17:51.260Z,33.76
2023-06-22T10:20:19.761Z,33.91
2023-06-22T10:22:47.722Z,34.09
2023-06-22T10:25:15.366Z,34.26
2023-06-22T10:27:43.229Z,34.27
2023-06-22T10:30:15.932Z,34.29
2023-06-22T10:32:44.695Z,34.37
2023-06-22T10:35:26.063Z,34.30
2023-06-22T10:37:53.917Z,34.28
2023-06-22T10:40:21.884Z,34.16
2023-06-22T10:42:51.269Z,34.29
2023-06-22T10:45:18.912Z,34.10
2023-06-22T10:47:46.849Z,34.11
2023-06-22T10:50:14.600Z,34.14
2023-06-22T10:52:45.034Z,34.00
2023-06-22T10:55:12.947Z,34.19
2023-06-22T10:57:44.848Z,34.31
2023-06-22T11:00:13.648Z,34.13
2023-06-22T11:02:41.694Z,34.38
2023-06-22T11:05:09.724Z,34.43
2023-06-22T11:10:13.088Z,34.49
2023-06-22T11:12:40.965Z,34.36
2023-06-22T11:15:09.464Z,34.36
2023-06-22T11:17:37.103Z,34.34
2023-06-22T11:20:11.782Z,34.61
2023-06-22T11:22:40.597Z,34.34
2023-06-22T11:25:09.439Z,33.95
2023-06-22T11:27:37.078Z,34.23
2023-06-22T11:30:05.172Z,34.43
2023-06-22T11:32:33.254Z,34.13
2023-06-22T11:35:01.000Z,34.18
2023-06-22T11:37:28.604Z,34.48
2023-06-22T11:40:06.088Z,34.64
2023-06-22T11:42:35.455Z,34.85
2023-06-22T11:45:06.001Z,34.84
2023-06-22T11:47:33.588Z,35.05
2023-06-22T11:50:01.161Z,35.00
2023-06-22T11:52:29.036Z,35.11
2023-06-22T11:54:56.602Z,35.17
2023-06-22T11:57:24.154Z,35.37
2023-06-22T11:59:52.032Z,35.15
2023-06-22T12:02:19.700Z,35.27
2023-06-22T12:04:47.752Z,35.23
2023-06-22T12:07:15.272Z,35.30
2023-06-22T12:09:42.843Z,35.05
2023-06-22T12:12:11.149Z,34.63
2023-06-22T12:14:38.728Z,34.63
2023-06-22T12:17:06.384Z,34.65
2023-06-22T12:19:34.347Z,34.93
2023-06-22T12:22:01.920Z,34.78
2023-06-22T12:24:30.475Z,34.53
2023-06-22T12:26:58.379Z,34.82
2023-06-22T12:29:25.992Z,34.88
2023-06-22T12:31:53.701Z,34.72
2023-06-22T12:34:21.644Z,34.96
2023-06-22T12:36:49.835Z,34.91
2023-06-22T12:39:17.423Z,34.82
2023-06-22T12:41:45.318Z,34.97
2023-06-22T12:44:12.934Z,35.05
2023-06-22T12:46:40.525Z,34.88
2023-06-22T12:49:08.370Z,34.87
2023-06-22T12:51:41.334Z,35.02
2023-06-22T12:54:09.350Z,34.87
2023-06-22T12:56:37.327Z,34.54
2023-06-22T12:59:05.940Z,34.82
2023-06-22T13:01:33.825Z,34.87
2023-06-22T13:04:01.441Z,35.05
2023-06-22T13:06:29.017Z,34.79
2023-06-22T13:09:19.947Z,34.83
2023-06-22T13:11:44.528Z,35.06
2023-06-22T13:14:12.485Z,35.04
2023-06-22T13:16:40.059Z,34.85
2023-06-22T13:19:08.689Z,34.69
2023-06-22T13:21:36.742Z,34.64
2023-06-22T13:24:04.739Z,34.33
2023-06-22T13:26:32.354Z,34.12
2023-06-22T13:29:00.241Z,34.48
2023-06-22T13:31:27.865Z,34.30
2023-06-22T13:33:55.486Z,34.44
2023-06-22T13:36:24.491Z,34.05
2023-06-22T13:38:52.208Z,34.18
2023-06-22T13:41:19.823Z,34.21
2023-06-22T13:43:47.807Z,34.27
2023-06-22T13:46:15.435Z,34.32
2023-06-22T13:48:43.043Z,34.49
2023-06-22T13:51:10.917Z,34.37
2023-06-22T13:53:38.470Z,34.26
2023-06-22T13:56:06.006Z,34.40
2023-06-22T13:58:33.901Z,34.35
2023-06-22T14:01:01.463Z,34.36
2023-06-22T14:03:29.339Z,34.33
2023-06-22T14:05:57.707Z,34.18
2023-06-22T14:08:41.067Z,34.31
2023-06-22T14:11:10.617Z,34.31
2023-06-22T14:13:38.239Z,34.22
2023-06-22T14:16:07.065Z,34.19
2023-06-22T14:18:34.963Z,34.24
2023-06-22T14:21:02.618Z,34.29
2023-06-22T14:23:30.176Z,34.19
2023-06-22T14:25:58.069Z,34.08
2023-06-22T14:28:25.612Z,34.10
2023-06-22T14:30:53.245Z,34.04
2023-06-22T14:33:21.124Z,34.15
2023-06-22T14:35:48.872Z,34.17
2023-06-22T14:38:16.420Z,34.15
2023-06-22T14:41:05.774Z,34.32
2023-06-22T14:43:31.720Z,34.23
2023-06-22T14:45:59.742Z,34.17
2023-06-22T14:48:27.449Z,34.21
2023-06-22T14:50:56.353Z,34.32
2023-06-22T14:53:24.588Z,34.30
2023-06-22T14:55:52.177Z,34.21
2023-06-22T14:58:19.689Z,34.17
2023-06-22T15:00:47.654Z,34.18
2023-06-22T15:03:20.008Z,34.20
2023-06-22T15:05:48.159Z,34.05
2023-06-22T15:08:15.843Z,34.11
2023-06-22T15:10:43.643Z,34.05
2023-06-22T15:13:11.553Z,33.90
2023-06-22T15:15:39.426Z,33.87
2023-06-22T15:18:07.372Z,33.82
2023-06-22T15:20:35.368Z,33.76
2023-06-22T15:23:03.119Z,33.65
2023-06-22T15:25:30.684Z,33.63
2023-06-22T15:27:58.724Z,33.61
2023-06-22T15:30:26.501Z,33.63
2023-06-22T15:32:54.115Z,33.68
2023-06-22T15:35:23.809Z,33.60
2023-06-22T15:37:52.550Z,33.47
2023-06-22T15:40:20.232Z,33.51
2023-06-22T15:42:53.570Z,33.50
2023-06-22T15:45:21.590Z,33.45
2023-06-22T15:47:49.527Z,33.33
2023-06-22T15:50:17.175Z,33.25
2023-06-22T15:52:51.215Z,33.10
2023-06-22T15:55:22.429Z,32.94
2023-06-22T15:57:50.453Z,32.83
2023-06-22T16:00:19.821Z,32.69
2023-06-22T16:02:48.447Z,32.68
2023-06-22T16:05:16.343Z,32.74
2023-06-22T16:07:44.384Z,32.75
2023-06-22T16:10:14.247Z,32.75
2023-06-22T16:12:44.631Z,32.74
2023-06-22T16:15:12.616Z,32.65
2023-06-22T16:17:40.303Z,32.57
2023-06-22T16:20:09.553Z,32.38
2023-06-22T16:22:37.505Z,32.21
2023-06-22T16:25:05.375Z,32.16
2023-06-22T16:27:33.559Z,32.11
2023-06-22T16:30:01.528Z,32.04
2023-06-22T16:32:29.196Z,32.00
2023-06-22T16:34:56.790Z,31.94
2023-06-22T16:37:25.404Z,31.92
2023-06-22T16:39:53.463Z,31.87
2023-06-22T16:42:21.184Z,31.83
2023-06-22T16:44:49.190Z,31.88
2023-06-22T16:47:16.821Z,31.86
2023-06-22T16:49:44.521Z,31.72
2023-06-22T16:52:12.413Z,31.66
2023-06-22T16:54:56.642Z,31.62
2023-06-22T16:57:27.869Z,31.59
2023-06-22T16:59:58.380Z,31.52
2023-06-22T17:02:27.297Z,31.53
2023-06-22T17:04:56.771Z,31.52
2023-06-22T17:07:27.779Z,31.52
2023-06-22T17:09:58.173Z,31.54
2023-06-22T17:12:26.352Z,31.54
2023-06-22T17:14:56.094Z,31.51
2023-06-22T17:17:27.068Z,31.48
2023-06-22T17:19:54.792Z,31.41
2023-06-22T17:22:22.442Z,31.31
2023-06-22T17:24:52.371Z,31.20
2023-06-22T17:27:29.578Z,31.09
2023-06-22T17:30:10.986Z,31.11
2023-06-22T17:32:38.501Z,31.09
2023-06-22T17:35:06.692Z,31.03
2023-06-22T17:37:49.893Z,30.97
2023-06-22T17:40:19.778Z,30.82
2023-06-22T17:42:47.992Z,30.79
2023-06-22T17:45:23.610Z,30.75
2023-06-22T17:47:53.684Z,30.67
2023-06-22T17:50:25.986Z,30.61
2023-06-22T17:52:57.036Z,30.53
2023-06-22T17:55:25.679Z,30.51
2023-06-22T17:57:58.021Z,30.48
2023-06-22T18:00:27.375Z,30.41
2023-06-22T18:02:57.140Z,30.34
2023-06-22T18:05:35.119Z,30.27
2023-06-22T18:08:07.520Z,30.19
2023-06-22T18:10:37.208Z,30.06
2023-06-22T18:13:05.927Z,29.98
2023-06-22T18:15:35.422Z,29.90
2023-06-22T18:18:04.140Z,29.75
2023-06-22T18:20:33.493Z,29.66
2023-06-22T18:23:01.479Z,29.56
2023-06-22T18:25:32.689Z,29.46
2023-06-22T18:28:01.497Z,29.36
2023-06-22T18:30:29.515Z,29.29
2023-06-22T18:32:57.631Z,29.22
2023-06-22T18:35:25.732Z,29.13
2023-06-22T18:37:53.662Z,29.04
2023-06-22T18:40:21.377Z,28.92
2023-06-22T18:42:49.653Z,28.81
2023-06-22T18:45:28.797Z,28.75
2023-06-22T18:48:04.992Z,28.67
2023-06-22T18:50:45.292Z,28.54
2023-06-22T18:53:29.085Z,28.50
2023-06-22T18:56:14.369Z,28.40
2023-06-22T18:58:42.347Z,28.31
2023-06-22T19:01:17.047Z,28.22
2023-06-22T19:03:49.839Z,28.14
2023-06-22T19:06:51.683Z,28.08
2023-06-22T19:09:20.415Z,28.05
2023-06-22T19:11:49.495Z,27.97
2023-06-22T19:14:22.039Z,27.94
2023-06-22T19:16:58.910Z,27.89
2023-06-22T19:19:26.506Z,27.83
2023-06-22T19:22:01.630Z,27.79
2023-06-22T19:24:31.111Z,27.73
2023-06-22T19:26:59.420Z,27.72
2023-06-22T19:29:28.305Z,27.66
2023-06-22T19:31:57.470Z,27.66
2023-06-22T19:34:26.689Z,27.63
2023-06-22T19:36:54.326Z,27.62
2023-06-22T19:39:22.153Z,27.57
2023-06-22T19:41:50.116Z,27.52
2023-06-22T19:44:17.802Z,27.49
2023-06-22T19:46:47.106Z,27.43
2023-06-22T19:49:17.328Z,27.42
2023-06-22T19:51:44.887Z,27.32
2023-06-22T19:54:16.710Z,27.23
2023-06-22T19:56:45.371Z,27.13
2023-06-22T19:59:21.533Z,27.05
2023-06-22T20:01:49.451Z,26.90
2023-06-22T20:04:17.358Z,26.83
2023-06-22T20:07:04.422Z,26.81
2023-06-22T20:09:33.223Z,26.74
2023-06-22T20:12:01.128Z,26.66
2023-06-22T20:14:33.934Z,26.60
2023-06-22T20:17:03.702Z,26.54
2023-06-22T20:19:42.200Z,26.45
2023-06-22T20:22:11.631Z,26.39
2023-06-22T20:24:42.478Z,26.41
2023-06-22T20:27:13.550Z,26.42
2023-06-22T20:29:44.405Z,26.42
2023-06-22T20:32:14.793Z,26.39
2023-06-22T20:34:47.505Z,26.38
2023-06-22T20:37:29.461Z,26.33
2023-06-22T20:39:57.180Z,26.31
2023-06-22T20:42:25.220Z,26.29
2023-06-22T20:44:52.925Z,26.30
2023-06-22T20:47:23.483Z,26.29
2023-06-22T20:49:51.776Z,26.26
2023-06-22T20:52:19.745Z,26.18
2023-06-22T20:54:47.389Z,26.16
2023-06-22T20:57:15.427Z,26.06
2023-06-22T20:59:43.204Z,26.05
2023-06-22T21:02:11.349Z,25.94
2023-06-22T21:04:40.488Z,25.93
2023-06-22T21:07:08.095Z,25.89
2023-06-22T21:09:50.162Z,25.91
2023-06-22T21:12:20.515Z,25.89
2023-06-22T21:14:48.375Z,25.88
2023-06-22T21:17:17.400Z,25.86
2023-06-22T21:19:45.469Z,25.77
2023-06-22T21:22:13.051Z,25.73
2023-06-22T21:24:43.550Z,25.67
2023-06-22T21:27:13.365Z,25.57
2023-06-22T21:29:40.962Z,25.51
2023-06-22T21:32:09.026Z,25.54
2023-06-22T21:34:36.847Z,25.45
2023-06-22T21:37:05.040Z,25.46
2023-06-22T21:39:36.678Z,25.47
2023-06-22T21:42:04.977Z,25.42
2023-06-22T21:44:32.536Z,25.40
2023-06-22T21:47:00.194Z,25.35
2023-06-22T21:49:28.047Z,25.30
2023-06-22T21:51:55.619Z,25.23
2023-06-22T21:54:23.140Z,25.18
2023-06-22T21:56:50.942Z,25.16
2023-06-22T21:59:18.583Z,25.12
2023-06-22T22:01:46.229Z,25.13
2023-06-22T22:04:16.053Z,25.18
2023-06-22T22:06:43.757Z,25.21
2023-06-22T22:09:11.254Z,25.18
2023-06-22T22:11:39.096Z,25.14
2023-06-22T22:14:09.753Z,25.14
2023-06-22T22:16:37.355Z,25.11
2023-06-22T22:19:05.293Z,25.02
2023-06-22T22:21:33.143Z,24.99
2023-06-22T22:24:00.802Z,24.97
2023-06-22T22:26:29.090Z,24.92
2023-06-22T22:28:56.660Z,24.92
2023-06-22T22:31:24.191Z,24.90
2023-06-22T22:33:52.125Z,24.89
2023-06-22T22:36:19.899Z,24.88
2023-06-22T22:38:47.514Z,24.88
2023-06-22T22:41:15.364Z,24.85
2023-06-22T22:43:43.044Z,24.84
2023-06-22T22:46:10.684Z,24.77
2023-06-22T22:48:38.591Z,24.73
2023-06-22T22:51:06.744Z,24.65
2023-06-22T22:53:34.960Z,24.60
2023-06-22T22:56:03.698Z,24.58
2023-06-22T22:58:31.369Z,24.54
2023-06-22T23:01:00.212Z,24.56
2023-06-22T23:03:28.195Z,24.50
2023-06-22T23:05:57.209Z,24.52
2023-06-22T23:08:25.032Z,24.51
2023-06-22T23:10:53.056Z,24.47
2023-06-22T23:13:20.634Z,24.44
2023-06-22T23:15:48.266Z,24.39
2023-06-22T23:18:16.169Z,24.32
2023-06-22T23:20:43.935Z,24.32
2023-06-22T23:23:11.493Z,24.27
2023-06-22T23:25:39.580Z,24.26
2023-06-22T23:28:07.159Z,24.26
2023-06-22T23:30:35.803Z,24.21
2023-06-22T23:33:03.769Z,24.15
2023-06-22T23:35:31.643Z,24.09
2023-06-22T23:37:59.450Z,24.00
2023-06-22T23:40:27.292Z,24.05
2023-06-22T23:42:54.787Z,24.01
2023-06-22T23:45:22.914Z,23.98
2023-06-22T23:47:52.106Z,23.98
2023-06-22T23:50:19.726Z,23.99
2023-06-22T23:52:50.437Z,24.03
2023-06-22T23:55:19.846Z,23.97
2023-06-22T23:57:47.400Z,23.98
